createdAt,value
2022-08-22T00:02:46.231Z,57.70
2022-08-22T00:02:47.891Z,53.70
2022-08-22T00:02:57.787Z,63.70
2022-08-22T00:02:58.023Z,64.40
2022-08-22T00:03:15.046Z,65.20
2022-08-22T00:06:10.204Z,64.90
2022-08-22T00:09:24.626Z,64.70
2022-08-22T00:12:19.915Z,64.80
2022-08-22T00:15:13.200Z,65.20
2022-08-22T00:18:09.813Z,65.00
2022-08-22T00:20:52.738Z,65.40
2022-08-22T00:23:52.582Z,65.40
2022-08-22T00:26:45.104Z,65.30
2022-08-22T00:29:23.845Z,65.90
2022-08-22T00:32:14.381Z,65.80
2022-08-22T00:34:58.907Z,66.00
2022-08-22T00:37:43.960Z,66.00
2022-08-22T00:41:03.620Z,65.90
2022-08-22T00:43:57.591Z,65.70
2022-08-22T00:46:51.104Z,65.60
2022-08-22T00:49:24.518Z,65.80
2022-08-22T00:52:35.524Z,66.40
2022-08-22T00:55:35.750Z,66.20
2022-08-22T00:58:45.616Z,66.40
2022-08-22T01:01:19.940Z,66.10
2022-08-22T01:03:52.922Z,66.60
2022-08-22T01:06:43.419Z,66.70
2022-08-22T01:10:18.380Z,66.70
2022-08-22T01:12:50.986Z,66.10
2022-08-22T01:15:29.306Z,66.70
2022-08-22T01:18:07.740Z,66.60
2022-08-22T01:20:46.463Z,66.80
2022-08-22T01:23:59.561Z,66.90
2022-08-22T01:26:48.093Z,66.70
2022-08-22T01:29:49.315Z,67.10
2022-08-22T01:32:58.082Z,66.70
2022-08-22T01:35:35.941Z,66.80
2022-08-22T01:38:42.857Z,67.10
2022-08-22T01:42:01.558Z,67.20
2022-08-22T01:44:47.123Z,66.70
2022-08-22T01:47:29.633Z,67.10
2022-08-22T01:50:20.982Z,67.20
2022-08-22T01:53:06.666Z,67.20
2022-08-22T01:56:10.000Z,67.40
2022-08-22T01:58:56.166Z,67.40
2022-08-22T02:01:40.615Z,67.80
2022-08-22T02:04:39.675Z,67.70
2022-08-22T02:08:05.232Z,67.50
2022-08-22T02:10:56.802Z,67.60
2022-08-22T02:13:33.541Z,67.80
2022-08-22T02:16:33.410Z,68.10
2022-08-22T02:19:16.782Z,67.90
2022-08-22T02:22:20.154Z,68.00
2022-08-22T02:24:59.923Z,68.10
2022-08-22T02:28:15.895Z,68.10
2022-08-22T02:30:52.069Z,67.80
2022-08-22T02:33:37.767Z,68.10
2022-08-22T02:36:25.864Z,68.10
2022-08-22T02:39:26.452Z,68.10
2022-08-22T02:42:11.897Z,68.20
2022-08-22T02:45:18.918Z,68.70
2022-08-22T02:48:17.162Z,68.50
2022-08-22T02:51:02.915Z,68.50
2022-08-22T02:53:57.634Z,68.90
2022-08-22T02:56:43.012Z,69.10
2022-08-22T02:59:55.201Z,69.10
2022-08-22T03:02:36.440Z,69.00
2022-08-22T03:05:38.825Z,68.90
2022-08-22T03:08:17.070Z,68.60
2022-08-22T03:11:19.198Z,68.90
2022-08-22T03:14:15.047Z,68.70
2022-08-22T03:17:21.660Z,68.60
2022-08-22T03:20:21.484Z,68.70
2022-08-22T03:23:07.356Z,68.90
2022-08-22T03:25:51.658Z,69.10
2022-08-22T03:28:31.573Z,69.10
2022-08-22T03:31:11.898Z,69.40
2022-08-22T03:33:38.868Z,69.50
2022-08-22T03:36:24.487Z,69.50
2022-08-22T03:39:17.720Z,69.40
2022-08-22T03:42:17.862Z,69.20
2022-08-22T03:45:24.511Z,69.40
2022-08-22T03:48:35.431Z,69.30
2022-08-22T03:51:42.232Z,69.30
2022-08-22T03:54:24.358Z,69.30
2022-08-22T03:57:54.595Z,69.60
2022-08-22T04:00:59.238Z,69.20
2022-08-22T04:03:54.649Z,69.30
2022-08-22T04:07:31.474Z,69.50
2022-08-22T04:10:33.581Z,69.40
2022-08-22T04:13:28.082Z,69.50
2022-08-22T04:16:51.003Z,69.60
2022-08-22T04:19:48.549Z,69.50
2022-08-22T04:22:39.948Z,69.70
2022-08-22T04:25:33.644Z,69.50
2022-08-22T04:28:17.374Z,69.70
2022-08-22T04:31:10.161Z,70.10
2022-08-22T04:33:40.161Z,70.00
2022-08-22T04:36:39.341Z,70.20
2022-08-22T04:39:23.615Z,69.80
2022-08-22T04:42:32.156Z,70.20
2022-08-22T04:45:23.564Z,70.10
2022-08-22T04:48:01.159Z,70.30
2022-08-22T04:50:49.007Z,69.80
2022-08-22T04:53:43.758Z,70.20
2022-08-22T04:56:57.680Z,70.20
2022-08-22T04:59:25.498Z,70.30
2022-08-22T05:02:06.542Z,70.90
2022-08-22T05:04:48.046Z,70.70
2022-08-22T05:07:26.305Z,70.70
2022-08-22T05:10:12.061Z,70.60
2022-08-22T05:12:56.209Z,70.90
2022-08-22T05:15:30.875Z,70.70
2022-08-22T05:18:08.119Z,71.10
2022-08-22T05:20:38.538Z,71.20
2022-08-22T05:23:20.470Z,71.40
2022-08-22T05:25:56.309Z,71.20
2022-08-22T05:28:45.409Z,71.50
2022-08-22T05:31:24.071Z,71.10
2022-08-22T05:34:16.795Z,71.60
2022-08-22T05:37:00.076Z,71.70
2022-08-22T05:39:30.039Z,71.50
2022-08-22T05:42:04.548Z,71.80
2022-08-22T05:44:38.351Z,71.20
2022-08-22T05:47:39.673Z,71.10
2022-08-22T05:50:27.662Z,70.40
2022-08-22T05:53:18.153Z,70.60
2022-08-22T05:56:10.299Z,70.40
2022-08-22T05:58:40.143Z,70.50
2022-08-22T06:01:28.742Z,71.20
2022-08-22T06:04:08.081Z,71.50
2022-08-22T06:06:56.582Z,71.30
2022-08-22T06:09:42.606Z,70.80
2022-08-22T06:12:21.692Z,70.40
2022-08-22T06:15:12.616Z,71.20
2022-08-22T06:17:47.093Z,69.90
2022-08-22T06:20:23.832Z,70.90
2022-08-22T06:22:57.732Z,71.60
2022-08-22T06:25:35.523Z,71.20
2022-08-22T06:28:16.460Z,70.50
2022-08-22T06:30:45.650Z,70.90
2022-08-22T06:33:21.645Z,70.10
2022-08-22T06:36:15.926Z,70.60
2022-08-22T06:39:27.342Z,70.90
2022-08-22T06:42:15.886Z,68.90
2022-08-22T06:44:48.754Z,69.60
2022-08-22T06:47:26.190Z,70.60
2022-08-22T06:50:02.002Z,70.20
2022-08-22T06:52:34.815Z,69.90
2022-08-22T06:55:07.807Z,70.10
2022-08-22T06:57:44.159Z,69.20
2022-08-22T07:00:16.415Z,69.70
2022-08-22T07:03:00.370Z,69.40
2022-08-22T07:05:39.898Z,69.10
2022-08-22T07:08:16.121Z,68.00
2022-08-22T07:11:17.369Z,68.60
2022-08-22T07:13:57.144Z,67.00
2022-08-22T07:16:45.369Z,68.40
2022-08-22T07:19:32.871Z,67.10
2022-08-22T07:22:30.696Z,66.90
2022-08-22T07:25:06.523Z,69.20
2022-08-22T07:28:15.885Z,68.40
2022-08-22T07:30:57.751Z,65.90
2022-08-22T07:33:56.383Z,65.80
2022-08-22T07:37:03.777Z,65.30
2022-08-22T07:39:51.100Z,66.90
2022-08-22T07:42:58.967Z,65.30
2022-08-22T07:45:50.125Z,64.30
2022-08-22T07:48:53.649Z,63.70
2022-08-22T07:51:41.292Z,65.00
2022-08-22T07:54:13.387Z,64.10
2022-08-22T07:57:21.224Z,65.50
2022-08-22T07:59:54.249Z,62.60
2022-08-22T08:02:23.622Z,64.70
2022-08-22T08:04:55.025Z,64.20
2022-08-22T08:07:26.542Z,63.40
2022-08-22T08:10:18.694Z,62.50
2022-08-22T08:13:02.023Z,62.50
2022-08-22T08:15:34.338Z,61.20
2022-08-22T08:18:11.167Z,64.20
2022-08-22T08:20:39.295Z,62.70
2022-08-22T08:23:11.947Z,64.80
2022-08-22T08:26:17.239Z,64.30
2022-08-22T08:28:55.800Z,61.20
2022-08-22T08:31:36.036Z,61.20
2022-08-22T08:34:22.725Z,58.80
2022-08-22T08:36:54.725Z,58.60
2022-08-22T08:39:35.078Z,62.20
2022-08-22T08:42:31.663Z,59.80
2022-08-22T08:45:17.324Z,55.40
2022-08-22T08:48:26.040Z,54.70
2022-08-22T08:51:17.624Z,55.40
2022-08-22T08:54:43.494Z,54.10
2022-08-22T08:57:37.130Z,54.50
2022-08-22T09:00:14.368Z,53.70
2022-08-22T09:03:44.743Z,56.50
2022-08-22T09:06:22.783Z,53.40
2022-08-22T09:08:59.705Z,55.80
2022-08-22T09:12:03.026Z,54.10
2022-08-22T09:14:58.786Z,50.50
2022-08-22T09:18:01.562Z,49.80
2022-08-22T09:21:03.264Z,49.80
2022-08-22T09:23:54.142Z,46.80
2022-08-22T09:27:09.138Z,46.50
2022-08-22T09:29:54.864Z,46.90
2022-08-22T09:32:47.394Z,45.30
2022-08-22T09:35:47.043Z,46.50
2022-08-22T09:38:59.748Z,41.80
2022-08-22T09:41:31.607Z,40.80
2022-08-22T09:44:08.849Z,44.50
2022-08-22T09:47:11.160Z,46.00
2022-08-22T09:50:04.075Z,42.20
2022-08-22T09:53:12.844Z,41.80
2022-08-22T09:56:32.820Z,43.50
2022-08-22T09:59:22.039Z,43.20
2022-08-22T10:02:43.633Z,42.20
2022-08-22T10:05:41.064Z,40.50
2022-08-22T10:08:33.485Z,42.90
2022-08-22T10:11:25.981Z,39.80
2022-08-22T10:14:25.158Z,37.70
2022-08-22T10:17:21.608Z,41.20
2022-08-22T10:20:02.750Z,36.80
2022-08-22T10:22:44.599Z,36.20
2022-08-22T10:25:34.545Z,36.00
2022-08-22T10:28:28.680Z,36.60
2022-08-22T10:31:26.561Z,42.20
2022-08-22T10:34:24.589Z,38.00
2022-08-22T10:37:05.242Z,37.20
2022-08-22T10:39:52.100Z,39.10
2022-08-22T10:42:35.247Z,34.10
2022-08-22T10:45:35.674Z,33.60
2022-08-22T10:48:10.180Z,33.70
2022-08-22T10:50:50.680Z,35.50
2022-08-22T10:53:34.741Z,34.30
2022-08-22T10:56:27.370Z,36.00
2022-08-22T10:59:14.160Z,35.90
2022-08-22T11:02:25.939Z,34.50
2022-08-22T11:05:18.738Z,33.80
2022-08-22T11:08:10.223Z,35.80
2022-08-22T11:11:06.878Z,36.60
2022-08-22T11:13:42.294Z,35.10
2022-08-22T11:17:30.917Z,34.50
2022-08-22T11:20:24.833Z,37.00
2022-08-22T11:23:27.249Z,36.20
2022-08-22T11:26:38.229Z,34.60
2022-08-22T11:29:44.731Z,34.10
2022-08-22T11:33:05.534Z,33.00
2022-08-22T11:35:56.052Z,32.50
2022-08-22T11:38:36.330Z,33.10
2022-08-22T11:41:21.414Z,32.60
2022-08-22T11:44:27.684Z,35.70
2022-08-22T11:46:58.048Z,34.00
2022-08-22T11:49:52.956Z,36.10
2022-08-22T11:52:53.682Z,34.00
2022-08-22T11:55:41.911Z,33.60
2022-08-22T11:58:33.832Z,34.40
2022-08-22T12:01:22.242Z,36.00
2022-08-22T12:04:00.486Z,34.60
2022-08-22T12:06:59.725Z,35.60
2022-08-22T12:09:52.080Z,34.80
2022-08-22T12:12:52.794Z,35.60
2022-08-22T12:16:08.300Z,35.00
2022-08-22T12:19:14.675Z,34.60
2022-08-22T12:22:07.662Z,35.00
2022-08-22T12:25:05.984Z,36.50
2022-08-22T12:27:48.264Z,35.70
2022-08-22T12:30:32.896Z,36.60
2022-08-22T12:33:23.067Z,38.00
2022-08-22T12:36:18.154Z,36.50
2022-08-22T12:39:16.624Z,39.00
2022-08-22T12:42:17.453Z,37.60
2022-08-22T12:45:16.842Z,37.40
2022-08-22T12:48:38.928Z,37.80
2022-08-22T12:51:29.487Z,38.10
2022-08-22T12:54:36.495Z,36.90
2022-08-22T12:57:15.239Z,36.40
2022-08-22T13:00:07.535Z,37.00
2022-08-22T13:02:41.533Z,38.50
2022-08-22T13:05:37.895Z,39.50
2022-08-22T13:08:21.945Z,38.10
2022-08-22T13:11:01.472Z,39.20
2022-08-22T13:13:41.441Z,38.70
2022-08-22T13:16:13.588Z,38.30
2022-08-22T13:18:52.915Z,40.20
2022-08-22T13:21:32.032Z,39.00
2022-08-22T13:24:52.477Z,40.00
2022-08-22T13:27:51.194Z,38.70
2022-08-22T13:30:29.866Z,38.90
2022-08-22T13:33:12.851Z,39.00
2022-08-22T13:36:12.538Z,39.00
2022-08-22T13:38:53.167Z,38.20
2022-08-22T13:41:45.203Z,40.10
2022-08-22T13:44:23.596Z,38.50
2022-08-22T13:47:12.876Z,38.00
2022-08-22T13:50:05.845Z,40.20
2022-08-22T13:52:55.499Z,38.70
2022-08-22T13:55:49.522Z,37.30
2022-08-22T13:58:35.660Z,37.60
2022-08-22T14:01:33.457Z,37.50
2022-08-22T14:04:28.435Z,37.30
2022-08-22T14:07:04.644Z,39.90
2022-08-22T14:09:54.426Z,39.10
2022-08-22T14:12:56.488Z,38.20
2022-08-22T14:15:45.824Z,38.40
2022-08-22T14:18:30.344Z,38.10
2022-08-22T14:21:29.223Z,38.90
2022-08-22T14:24:25.801Z,37.80
2022-08-22T14:27:09.344Z,38.00
2022-08-22T14:29:45.114Z,35.70
2022-08-22T14:32:22.554Z,36.90
2022-08-22T14:35:21.595Z,37.40
2022-08-22T14:37:58.271Z,35.00
2022-08-22T14:40:35.148Z,36.70
2022-08-22T14:43:14.917Z,33.50
2022-08-22T14:46:21.871Z,34.20
2022-08-22T14:49:06.576Z,32.80
2022-08-22T14:51:37.999Z,33.00
2022-08-22T14:54:21.370Z,35.80
2022-08-22T14:56:53.450Z,32.40
2022-08-22T14:59:37.008Z,34.60
2022-08-22T15:02:17.554Z,31.90
2022-08-22T15:04:49.750Z,30.90
2022-08-22T15:07:32.507Z,32.60
2022-08-22T15:10:17.592Z,29.90
2022-08-22T15:12:57.021Z,30.30
2022-08-22T15:15:41.119Z,32.10
2022-08-22T15:18:38.778Z,30.60
2022-08-22T15:21:11.349Z,31.40
2022-08-22T15:23:45.302Z,31.50
2022-08-22T15:26:25.461Z,30.80
2022-08-22T15:29:16.247Z,28.70
2022-08-22T15:31:46.822Z,28.90
2022-08-22T15:34:35.715Z,30.90
2022-08-22T15:37:17.693Z,28.90
2022-08-22T15:40:12.044Z,29.80
2022-08-22T15:42:51.233Z,29.20
2022-08-22T15:45:38.382Z,28.40
2022-08-22T15:48:36.204Z,28.50
2022-08-22T15:51:10.418Z,29.20
2022-08-22T15:53:44.445Z,29.90
2022-08-22T15:56:11.221Z,28.10
2022-08-22T15:58:48.788Z,30.00
2022-08-22T16:01:22.553Z,29.80
2022-08-22T16:04:04.868Z,29.50
2022-08-22T16:06:58.056Z,28.10
2022-08-22T16:09:46.195Z,27.90
2022-08-22T16:12:45.928Z,27.90
2022-08-22T16:16:06.988Z,28.30
2022-08-22T16:18:33.862Z,28.50
2022-08-22T16:21:12.119Z,29.90
2022-08-22T16:23:51.219Z,27.90
2022-08-22T16:26:20.201Z,27.60
2022-08-22T16:28:59.433Z,29.10
2022-08-22T16:31:49.307Z,28.30
2022-08-22T16:34:18.806Z,28.50
2022-08-22T16:37:03.939Z,29.30
2022-08-22T16:39:45.862Z,28.40
2022-08-22T16:42:22.475Z,27.40
2022-08-22T16:45:08.293Z,28.10
2022-08-22T16:47:40.679Z,27.00
2022-08-22T16:50:16.646Z,29.00
2022-08-22T16:53:20.268Z,28.20
2022-08-22T16:56:38.615Z,28.00
2022-08-22T17:00:06.108Z,27.60
2022-08-22T17:03:04.295Z,27.50
2022-08-22T17:06:04.165Z,27.60
2022-08-22T17:09:21.711Z,27.50
2022-08-22T17:12:00.606Z,27.50
2022-08-22T17:14:58.207Z,28.00
2022-08-22T17:17:34.572Z,28.10
2022-08-22T17:20:59.212Z,28.50
2022-08-22T17:23:42.295Z,28.30
2022-08-22T17:26:23.981Z,28.70
2022-08-22T17:29:20.918Z,29.50
2022-08-22T17:32:08.934Z,29.60
2022-08-22T17:34:47.372Z,29.70
2022-08-22T17:37:55.064Z,29.80
2022-08-22T17:40:40.403Z,30.10
2022-08-22T17:43:27.555Z,31.10
2022-08-22T17:46:24.614Z,30.90
2022-08-22T17:49:28.857Z,31.30
2022-08-22T17:52:16.758Z,32.00
2022-08-22T17:54:57.463Z,31.90
2022-08-22T17:57:34.407Z,32.20
2022-08-22T18:00:15.232Z,31.80
2022-08-22T18:03:10.843Z,33.10
2022-08-22T18:05:58.424Z,33.00
2022-08-22T18:09:13.548Z,33.20
2022-08-22T18:12:26.083Z,33.40
2022-08-22T18:15:02.806Z,34.10
2022-08-22T18:18:03.198Z,34.80
2022-08-22T18:20:48.046Z,34.70
2022-08-22T18:23:39.049Z,34.80
2022-08-22T18:26:20.238Z,35.50
2022-08-22T18:29:12.509Z,35.90
2022-08-22T18:31:58.185Z,35.90
2022-08-22T18:34:59.666Z,36.30
2022-08-22T18:37:33.014Z,36.50
2022-08-22T18:40:26.871Z,36.80
2022-08-22T18:43:36.239Z,36.90
2022-08-22T18:46:40.263Z,36.60
2022-08-22T18:49:21.963Z,37.50
2022-08-22T18:52:25.385Z,37.60
2022-08-22T18:55:35.990Z,37.60
2022-08-22T18:58:23.797Z,37.80
2022-08-22T19:01:18.043Z,38.40
2022-08-22T19:04:30.815Z,38.70
2022-08-22T19:07:15.944Z,38.70
2022-08-22T19:10:07.282Z,39.80
2022-08-22T19:13:03.497Z,39.50
2022-08-22T19:16:26.283Z,39.70
2022-08-22T19:19:17.342Z,39.40
2022-08-22T19:22:26.050Z,40.10
2022-08-22T19:25:20.103Z,39.80
2022-08-22T19:28:09.464Z,40.10
2022-08-22T19:30:53.098Z,40.40
2022-08-22T19:33:34.245Z,40.50
2022-08-22T19:36:29.327Z,41.20
2022-08-22T19:39:10.238Z,41.40
2022-08-22T19:41:43.490Z,41.10
2022-08-22T19:44:35.313Z,39.60
2022-08-22T19:47:18.390Z,40.70
2022-08-22T19:50:05.671Z,41.10
2022-08-22T19:52:38.038Z,41.30
2022-08-22T19:55:23.250Z,41.50
2022-08-22T19:58:13.041Z,41.30
2022-08-22T20:01:01.879Z,41.90
2022-08-22T20:03:54.154Z,42.30
2022-08-22T20:06:44.022Z,42.20
2022-08-22T20:09:44.642Z,42.30
2022-08-22T20:12:28.991Z,42.30
2022-08-22T20:14:56.997Z,42.50
2022-08-22T20:17:26.932Z,42.70
2022-08-22T20:20:30.504Z,43.20
2022-08-22T20:23:22.890Z,43.50
2022-08-22T20:25:53.216Z,43.60
2022-08-22T20:28:49.711Z,43.40
2022-08-22T20:31:29.894Z,43.60
2022-08-22T20:34:09.500Z,43.60
2022-08-22T20:36:37.670Z,43.70
2022-08-22T20:39:16.453Z,43.60
2022-08-22T20:41:52.793Z,44.00
2022-08-22T20:44:47.442Z,44.40
2022-08-22T20:47:32.280Z,44.20
2022-08-22T20:50:11.894Z,44.70
2022-08-22T20:52:51.903Z,44.50
2022-08-22T20:55:31.889Z,44.80
2022-08-22T20:58:18.478Z,45.00
2022-08-22T21:00:49.585Z,45.20
2022-08-22T21:03:34.377Z,45.20
2022-08-22T21:06:30.739Z,45.80
2022-08-22T21:09:37.500Z,45.90
2022-08-22T21:12:09.288Z,46.20
2022-08-22T21:14:44.366Z,45.90
2022-08-22T21:17:29.057Z,46.50
2022-08-22T21:20:22.738Z,47.30
2022-08-22T21:22:50.519Z,47.00
2022-08-22T21:25:17.527Z,46.80
2022-08-22T21:27:48.616Z,46.90
2022-08-22T21:30:25.458Z,47.50
2022-08-22T21:32:56.163Z,48.10
2022-08-22T21:35:33.189Z,47.40
2022-08-22T21:38:02.206Z,48.10
2022-08-22T21:40:39.535Z,47.80
2022-08-22T21:43:10.259Z,48.30
2022-08-22T21:45:43.145Z,48.20
2022-08-22T21:48:33.369Z,48.40
2022-08-22T21:51:36.580Z,48.70
2022-08-22T21:54:25.608Z,48.60
2022-08-22T21:56:56.747Z,48.90
2022-08-22T21:59:51.005Z,48.60
2022-08-22T22:02:39.939Z,49.90
2022-08-22T22:05:14.969Z,49.10
2022-08-22T22:07:45.256Z,49.60
2022-08-22T22:10:16.559Z,49.10
2022-08-22T22:12:46.133Z,49.20
2022-08-22T22:15:19.017Z,49.30
2022-08-22T22:17:46.271Z,49.50
2022-08-22T22:20:16.366Z,49.50
2022-08-22T22:22:46.477Z,49.60
2022-08-22T22:25:41.034Z,49.60
2022-08-22T22:28:19.852Z,50.10
2022-08-22T22:30:53.028Z,50.00
2022-08-22T22:33:31.404Z,49.80
2022-08-22T22:36:07.190Z,50.40
2022-08-22T22:38:34.420Z,50.40
2022-08-22T22:41:01.414Z,50.40
2022-08-22T22:43:28.971Z,50.50
2022-08-22T22:45:56.461Z,50.60
2022-08-22T22:48:24.860Z,50.80
2022-08-22T22:50:53.988Z,50.90
2022-08-22T22:53:38.032Z,51.10
2022-08-22T22:56:09.254Z,51.20
2022-08-22T22:58:37.762Z,51.20
2022-08-22T23:01:19.482Z,51.10
2022-08-22T23:03:48.003Z,52.20
2022-08-22T23:06:21.278Z,51.40
2022-08-22T23:08:48.925Z,51.80
2022-08-22T23:11:29.209Z,51.60
2022-08-22T23:13:57.113Z,52.10
2022-08-22T23:16:28.014Z,51.50
2022-08-22T23:18:55.598Z,51.70
2022-08-22T23:21:29.795Z,50.50
2022-08-22T23:23:59.181Z,51.50
2022-08-22T23:26:27.189Z,51.70
2022-08-22T23:28:54.302Z,51.80
2022-08-22T23:31:38.827Z,51.90
2022-08-22T23:34:15.220Z,52.60
2022-08-22T23:36:45.946Z,52.30
2022-08-22T23:39:16.382Z,52.20
2022-08-22T23:41:43.937Z,52.10
2022-08-22T23:44:17.512Z,51.90
2022-08-22T23:46:45.039Z,52.00
2022-08-22T23:49:13.271Z,52.00
2022-08-22T23:51:42.543Z,52.20
2022-08-22T23:54:13.351Z,52.30
2022-08-22T23:56:48.123Z,52.30
2022-08-22T23:59:21.639Z,52.50
